Time;durP1;ratioP1;P1;durP2;ratioP2;P2;SDS_P1;SDS_P2;PMS_P1;PMS_P2;Temp;Humidity;BMP_temperature;BMP_pressure;BME280_temperature;BME280_humidity;BME280_pressure;Samples;Min_cycle;Max_cycle;Signal;HPM_P1;HPM_P2
2023/09/27 00:08:44;;;;;;;;;;;;;;;13.84;79.42;100317.06;1087264;54;1185;-78
2023/09/27 00:09:46;;;;;;;;;;;;;;;13.82;79.45;100318.22;1087111;47;1209;-78
2023/09/27 00:10:49;;;;;;;;;;;;;;;13.77;79.41;100324.09;1087840;54;971;-78
2023/09/27 00:11:50;;;;;;;;;;;;;;;13.79;79.97;100319.38;1087964;54;1390;-78
2023/09/27 00:12:53;;;;;;;;;;;;;;;13.80;79.32;100326.44;1087917;47;1361;-78
2023/09/27 00:13:53;;;;;;;;;;;;;;;13.79;79.28;100324.75;1088001;54;987;-78
2023/09/27 00:14:57;;;;;;;;;;;;;;;13.79;79.57;100318.53;1087878;47;1847;-77
2023/09/27 00:15:57;;;;;;;;;;;;;;;13.88;79.26;100317.59;1087957;47;1014;-78
2023/09/27 00:17:00;;;;;;;;;;;;;;;13.86;79.09;100324.97;1087948;54;997;-78
2023/09/27 00:18:01;;;;;;;;;;;;;;;13.87;79.16;100314.06;1087787;47;1518;-78
2023/09/27 00:19:05;;;;;;;;;;;;;;;13.94;78.95;100316.94;1087989;54;960;-79
2023/09/27 00:20:10;;;;;;;;;;;;;;;13.99;78.65;100313.75;1087920;54;1164;-79
2023/09/27 00:21:13;;;;;;;;;;;;;;;14.06;78.56;100309.47;1087928;54;941;-79
2023/09/27 00:22:14;;;;;;;;;;;;;;;14.11;78.33;100309.81;1087904;54;1325;-80
2023/09/27 00:23:15;;;;;;;;;;;;;;;14.14;78.10;100306.81;1087885;54;944;-78
2023/09/27 00:24:21;;;;;;;;;;;;;;;14.17;77.78;100311.84;1087972;54;1026;-79
2023/09/27 00:25:21;;;;;;;;;;;;;;;14.17;77.87;100317.22;1087974;54;1014;-78
2023/09/27 00:26:25;;;;;;;;;;;;;;;14.22;77.38;100313.22;1087892;54;1042;-79
2023/09/27 00:27:26;;;;;;;;;;;;;;;14.22;77.51;100314.03;1087940;47;1535;-80
2023/09/27 00:28:29;;;;;;;;;;;;;;;14.25;77.36;100318.28;1088157;54;981;-79
2023/09/27 00:29:30;;;;;;;;;;;;;;;14.30;77.03;100319.47;1088174;47;951;-79
2023/09/27 00:30:33;;;;;;;;;;;;;;;14.35;76.91;100317.13;1088055;47;1062;-80
2023/09/27 00:31:34;;;;;;;;;;;;;;;14.39;76.76;100314.13;1088162;54;1026;-80
2023/09/27 00:32:38;;;;;;;;;;;;;;;14.42;76.66;100320.00;1088155;54;1617;-80
2023/09/27 00:33:38;;;;;;;;;;;;;;;14.44;76.33;100311.75;1088068;54;1208;-79
2023/09/27 00:34:39;;;;;;;;;;;;;;;14.45;76.24;100311.59;1087980;54;1861;-79
2023/09/27 00:36:05;;;;;;;;;;;;;;;14.43;75.97;100310.06;1088288;54;1023;-81
2023/09/27 00:37:36;;;;;;;;;;;;;;;14.34;77.03;100322.66;1088419;46;1077;-81
2023/09/27 00:40:22;;;;;;;;;;;;;;;14.33;76.97;100316.44;1088287;47;1561;-83
2023/09/27 00:41:36;;;;;;;;;;;;;;;14.35;76.46;100319.81;1088224;47;1149;-81
2023/09/27 00:52:10;;;;;;;;;;;;;;;14.08;77.21;100320.03;1088445;54;1395;-81
2023/09/27 00:53:34;;;;;;;;;;;;;;;14.10;77.20;100312.66;1088446;54;1068;-81
2023/09/27 01:00:02;;;;;;;;;;;;;;;14.12;77.24;100324.09;1088302;47;1604;-80
2023/09/27 01:01:32;;;;;;;;;;;;;;;;;;;;;
2023/09/27 01:03:09;;;;;;;;;;;;;;;14.15;77.22;100330.00;1088089;47;1455;-81
2023/09/27 01:04:24;;;;;;;;;;;;;;;14.19;77.19;100330.50;1088429;54;935;-80
2023/09/27 01:30:09;;;;;;;;;;;;;;;14.15;76.50;100327.31;1088052;54;1881;-82
2023/09/27 01:31:13;;;;;;;;;;;;;;;14.16;76.80;100333.50;1088210;47;947;-82
2023/09/27 01:32:30;;;;;;;;;;;;;;;14.12;77.13;100334.84;1088116;46;1434;-81
2023/09/27 01:59:16;;;;;;;;;;;;;;;13.91;78.26;100367.47;1087195;54;1091;-79
2023/09/27 02:00:17;;;;;;;;;;;;;;;13.88;78.63;100366.81;1087280;47;959;-80
2023/09/27 02:01:21;;;;;;;;;;;;;;;13.78;79.76;100358.00;1087719;47;1304;-80
2023/09/27 02:02:28;;;;;;;;;;;;;;;13.73;80.56;100352.25;1087943;54;1359;-81
2023/09/27 02:03:34;;;;;;;;;;;;;;;13.77;79.69;100350.94;1088218;47;1039;-82
2023/09/27 02:04:40;;;;;;;;;;;;;;;13.77;79.54;100348.28;1088294;54;1000;-81
2023/09/27 02:05:44;;;;;;;;;;;;;;;13.75;79.77;100344.88;1088162;47;981;-80
2023/09/27 02:06:47;;;;;;;;;;;;;;;13.78;79.60;100343.72;1088263;54;908;-80
2023/09/27 02:08:11;;;;;;;;;;;;;;;13.79;79.21;100343.56;1088291;46;953;-82
2023/09/27 02:09:37;;;;;;;;;;;;;;;13.82;79.13;100348.63;1088304;54;914;-80
2023/09/27 02:10:40;;;;;;;;;;;;;;;13.83;79.40;100353.00;1088318;47;971;-81
2023/09/27 02:11:46;;;;;;;;;;;;;;;13.79;80.20;100350.78;1088423;54;1323;-81
2023/09/27 02:12:50;;;;;;;;;;;;;;;13.74;80.29;100343.19;1088277;54;973;-81
2023/09/27 02:13:53;;;;;;;;;;;;;;;13.70;80.32;100344.50;1088481;46;1014;-81
2023/09/27 02:19:57;;;;;;;;;;;;;;;13.65;80.44;100339.59;1088153;47;1053;-82
2023/09/27 02:21:01;;;;;;;;;;;;;;;13.67;80.22;100336.78;1088428;54;961;-83
2023/09/27 02:22:09;;;;;;;;;;;;;;;13.71;80.05;100340.81;1088456;54;1239;-82
2023/09/27 02:23:10;;;;;;;;;;;;;;;13.71;79.96;100338.13;1088379;47;975;-81
2023/09/27 02:24:17;;;;;;;;;;;;;;;13.72;80.26;100329.06;1088266;47;923;-81
2023/09/27 02:25:18;;;;;;;;;;;;;;;13.72;79.52;100329.94;1088184;47;948;-81
2023/09/27 02:29:36;;;;;;;;;;;;;;;13.67;80.67;100331.41;1088067;47;962;-81
2023/09/27 02:30:56;;;;;;;;;;;;;;;13.65;80.59;100330.72;1087620;47;1442;-78
2023/09/27 02:33:18;;;;;;;;;;;;;;;13.69;80.39;100337.47;1088226;47;1033;-78
2023/09/27 02:34:19;;;;;;;;;;;;;;;13.71;79.73;100338.13;1088392;47;1045;-79
2023/09/27 02:35:23;;;;;;;;;;;;;;;13.72;79.37;100338.00;1088185;47;1844;-79
2023/09/27 02:36:23;;;;;;;;;;;;;;;13.72;79.16;100339.81;1088293;47;1005;-80
2023/09/27 02:37:26;;;;;;;;;;;;;;;13.70;78.99;100342.69;1088389;54;985;-79
2023/09/27 02:38:33;;;;;;;;;;;;;;;13.72;78.66;100340.69;1088190;47;926;-79
2023/09/27 02:39:35;;;;;;;;;;;;;;;13.69;78.56;100340.16;1088034;54;985;-79
2023/09/27 02:41:54;;;;;;;;;;;;;;;13.60;78.91;100341.94;1086420;47;1357;-77
2023/09/27 02:42:54;;;;;;;;;;;;;;;13.54;79.06;100354.16;1087392;47;1399;-78
2023/09/27 02:43:58;;;;;;;;;;;;;;;13.52;79.22;100348.09;1087626;47;1034;-79
2023/09/27 02:44:59;;;;;;;;;;;;;;;13.43;79.44;100349.03;1087889;54;1069;-79
2023/09/27 02:49:07;;;;;;;;;;;;;;;13.23;80.20;100335.75;1087521;47;1079;-79
2023/09/27 02:50:09;;;;;;;;;;;;;;;13.18;80.52;100338.06;1087692;54;1113;-78
2023/09/27 02:51:16;;;;;;;;;;;;;;;13.16;80.47;100332.00;1087767;54;1075;-78
2023/09/27 02:52:17;;;;;;;;;;;;;;;13.07;80.91;100331.09;1086967;54;1319;-79
2023/09/27 02:53:21;;;;;;;;;;;;;;;13.03;80.98;100328.88;1086580;54;1032;-79
2023/09/27 02:54:21;;;;;;;;;;;;;;;12.90;81.23;100327.41;1086484;54;1190;-79
2023/09/27 02:55:25;;;;;;;;;;;;;;;12.87;81.47;100335.75;1086779;47;1854;-79
2023/09/27 02:56:26;;;;;;;;;;;;;;;12.88;81.32;100333.94;1086866;47;1076;-78
2023/09/27 02:57:31;;;;;;;;;;;;;;;12.91;81.13;100336.28;1086453;54;1101;-78
2023/09/27 02:58:32;;;;;;;;;;;;;;;12.87;81.27;100330.41;1086250;54;1048;-80
2023/09/27 02:59:37;;;;;;;;;;;;;;;12.86;81.18;100331.38;1086319;54;1105;-79
2023/09/27 03:00:37;;;;;;;;;;;;;;;12.85;81.29;100327.00;1086679;47;996;-79
2023/09/27 03:01:40;;;;;;;;;;;;;;;12.85;81.35;100324.31;1085814;47;1337;-78
2023/09/27 03:02:44;;;;;;;;;;;;;;;12.77;81.52;100329.63;1084830;47;1123;-78
2023/09/27 03:03:46;;;;;;;;;;;;;;;12.75;81.16;100323.59;1084925;47;1637;-78
2023/09/27 03:04:52;;;;;;;;;;;;;;;12.68;81.57;100319.81;1084797;47;1627;-78
2023/09/27 03:05:53;;;;;;;;;;;;;;;12.65;81.52;100326.31;1084987;47;1093;-78
2023/09/27 03:06:56;;;;;;;;;;;;;;;12.65;81.50;100323.63;1086439;54;1117;-78
2023/09/27 03:07:57;;;;;;;;;;;;;;;12.64;81.58;100320.13;1086974;47;1570;-79
2023/09/27 03:09:00;;;;;;;;;;;;;;;12.67;81.42;100323.47;1086844;47;1076;-77
2023/09/27 03:10:00;;;;;;;;;;;;;;;12.72;81.04;100327.41;1084591;54;1139;-78
2023/09/27 03:11:06;;;;;;;;;;;;;;;12.72;81.30;100331.94;1084411;47;1119;-80
2023/09/27 03:12:07;;;;;;;;;;;;;;;12.79;80.79;100327.63;1084527;47;1406;-78
2023/09/27 03:13:11;;;;;;;;;;;;;;;12.80;80.69;100326.63;1084695;47;1155;-77
2023/09/27 03:14:12;;;;;;;;;;;;;;;12.78;80.96;100336.69;1084406;47;1147;-78
2023/09/27 03:15:15;;;;;;;;;;;;;;;12.72;81.06;100330.06;1083820;47;1072;-78
2023/09/27 03:16:16;;;;;;;;;;;;;;;12.71;81.24;100335.59;1083526;47;1037;-77
2023/09/27 03:17:20;;;;;;;;;;;;;;;12.68;81.18;100325.16;1083719;47;1642;-78
2023/09/27 03:18:20;;;;;;;;;;;;;;;12.64;80.93;100330.84;1083138;47;1232;-77
2023/09/27 03:19:24;;;;;;;;;;;;;;;12.60;81.11;100325.94;1083650;47;1616;-78
2023/09/27 03:20:27;;;;;;;;;;;;;;;12.57;81.33;100326.25;1084237;47;1152;-77
2023/09/27 03:21:30;;;;;;;;;;;;;;;12.52;81.48;100329.38;1084344;47;1144;-77
2023/09/27 03:22:31;;;;;;;;;;;;;;;12.50;81.73;100322.47;1084401;54;1394;-77
2023/09/27 03:23:34;;;;;;;;;;;;;;;12.47;81.54;100328.97;1084349;54;989;-77
2023/09/27 03:24:35;;;;;;;;;;;;;;;12.48;81.64;100333.34;1085221;54;1585;-78
2023/09/27 03:25:38;;;;;;;;;;;;;;;12.47;81.93;100335.19;1084757;47;1076;-77
2023/09/27 03:26:39;;;;;;;;;;;;;;;12.45;81.82;100342.53;1084646;47;1352;-77
2023/09/27 03:27:42;;;;;;;;;;;;;;;12.45;81.77;100344.38;1085107;47;1060;-77
2023/09/27 03:28:43;;;;;;;;;;;;;;;12.48;81.48;100341.38;1085124;47;1031;-77
2023/09/27 03:29:46;;;;;;;;;;;;;;;12.43;81.83;100341.81;1085300;54;1063;-78
2023/09/27 03:30:47;;;;;;;;;;;;;;;12.38;81.79;100345.94;1086650;47;976;-79
2023/09/27 03:31:50;;;;;;;;;;;;;;;12.35;81.97;100349.78;1086539;54;1409;-79
2023/09/27 03:32:51;;;;;;;;;;;;;;;12.30;82.18;100342.19;1086800;54;1110;-79
2023/09/27 03:33:55;;;;;;;;;;;;;;;12.32;82.07;100348.25;1087549;54;1079;-80
2023/09/27 03:34:56;;;;;;;;;;;;;;;12.30;82.20;100349.41;1086330;54;1151;-79
2023/09/27 03:36:02;;;;;;;;;;;;;;;12.26;82.57;100345.31;1086665;47;1893;-79
2023/09/27 03:37:05;;;;;;;;;;;;;;;12.26;82.20;100354.22;1086034;47;1103;-78
2023/09/27 03:38:06;;;;;;;;;;;;;;;12.29;82.34;100348.53;1086367;47;1167;-78
2023/09/27 03:39:09;;;;;;;;;;;;;;;12.33;82.12;100355.28;1086931;46;992;-78
2023/09/27 03:40:13;;;;;;;;;;;;;;;12.41;81.63;100351.03;1087307;54;1099;-79
2023/09/27 03:41:16;;;;;;;;;;;;;;;12.45;81.77;100342.53;1087344;47;952;-79
2023/09/27 03:42:16;;;;;;;;;;;;;;;12.50;81.60;100344.75;1087016;47;1342;-79
2023/09/27 03:43:17;;;;;;;;;;;;;;;12.52;81.36;100349.97;1086827;47;1008;-77
2023/09/27 03:44:21;;;;;;;;;;;;;;;12.55;81.27;100353.22;1086513;47;1083;-78
2023/09/27 03:45:25;;;;;;;;;;;;;;;12.53;81.14;100362.38;1087998;47;1088;-80
2023/09/27 03:46:29;;;;;;;;;;;;;;;12.52;81.06;100358.00;1087163;47;1145;-78
2023/09/27 03:47:30;;;;;;;;;;;;;;;12.52;81.13;100366.06;1087812;47;959;-79
2023/09/27 03:48:37;;;;;;;;;;;;;;;12.48;81.48;100362.81;1087882;54;976;-80
2023/09/27 03:51:29;;;;;;;;;;;;;;;12.54;81.42;100362.25;1087651;47;1048;-79
2023/09/27 03:52:32;;;;;;;;;;;;;;;12.57;81.16;100359.25;1087823;47;1354;-82
2023/09/27 03:53:41;;;;;;;;;;;;;;;12.57;80.93;100361.09;1087890;46;1071;-81
2023/09/27 03:54:45;;;;;;;;;;;;;;;12.64;80.95;100363.03;1087960;47;1017;-81
2023/09/27 03:55:53;;;;;;;;;;;;;;;12.69;80.64;100367.94;1088251;47;1912;-81
2023/09/27 03:56:56;;;;;;;;;;;;;;;12.72;80.68;100361.44;1088436;46;1032;-81
2023/09/27 03:58:26;;;;;;;;;;;;;;;12.75;80.32;100353.09;1088388;54;1183;-82
2023/09/27 04:03:11;;;;;;;;;;;;;;;12.79;79.60;100351.78;1087916;54;1453;-81
2023/09/27 04:04:27;;;;;;;;;;;;;;;12.78;79.63;100352.78;1087619;47;1218;-82
2023/09/27 04:05:47;;;;;;;;;;;;;;;12.80;79.67;100356.16;1088494;46;912;-83
2023/09/27 04:06:56;;;;;;;;;;;;;;;12.80;79.56;100356.16;1088740;54;872;-81
2023/09/27 04:12:42;;;;;;;;;;;;;;;12.76;79.81;100354.75;1088034;46;1289;-80
2023/09/27 04:14:40;;;;;;;;;;;;;;;12.81;79.70;100357.84;1088083;47;908;-81
2023/09/27 04:38:15;;;;;;;;;;;;;;;12.68;80.07;100386.84;2046416;54;50673;-80
2023/09/27 11:22:58;;;;;;;;;;;;;;;23.67;50.42;100190.06;1090953;46;1716;-81
2023/09/27 11:23:59;;;;;;;;;;;;;;;23.68;50.36;100188.19;1088279;47;892;-83
2023/09/27 11:25:03;;;;;;;;;;;;;;;23.76;50.33;100185.13;1088507;47;956;-82
2023/09/27 11:26:04;;;;;;;;;;;;;;;23.65;50.74;100189.47;1088224;54;983;-81
2023/09/27 11:27:08;;;;;;;;;;;;;;;23.73;51.00;100174.66;1088040;47;939;-80
2023/09/27 11:28:13;;;;;;;;;;;;;;;23.71;50.62;100182.25;1088091;47;888;-82
2023/09/27 11:29:39;;;;;;;;;;;;;;;23.67;51.34;100179.13;1088399;46;943;-82
2023/09/27 11:30:40;;;;;;;;;;;;;;;23.52;51.17;100179.53;1088066;47;990;-81
2023/09/27 11:31:56;;;;;;;;;;;;;;;23.52;51.52;100176.78;1088164;54;1306;-80
2023/09/27 11:32:57;;;;;;;;;;;;;;;23.43;51.32;100167.25;1088136;47;975;-81
2023/09/27 11:34:17;;;;;;;;;;;;;;;23.26;51.27;100167.03;1088157;54;1004;-80
2023/09/27 11:35:25;;;;;;;;;;;;;;;23.21;51.95;100162.25;1087998;47;1347;-83
2023/09/27 11:36:30;;;;;;;;;;;;;;;23.32;51.98;100168.03;1088143;54;1876;-80
2023/09/27 11:37:32;;;;;;;;;;;;;;;23.27;51.89;100156.94;1087976;47;975;-81
2023/09/27 11:38:38;;;;;;;;;;;;;;;23.36;52.38;100158.31;1088172;54;995;-80
2023/09/27 11:39:46;;;;;;;;;;;;;;;23.36;51.60;100155.59;1088019;54;977;-79
2023/09/27 11:40:50;;;;;;;;;;;;;;;23.42;51.50;100160.16;1088061;47;942;-81
2023/09/27 11:41:51;;;;;;;;;;;;;;;23.48;51.38;100159.22;1088559;54;1319;-79
2023/09/27 11:44:26;;;;;;;;;;;;;;;23.42;52.30;100151.97;1088481;54;907;-81
2023/09/27 11:45:26;;;;;;;;;;;;;;;23.38;52.30;100145.28;1088639;47;942;-81
2023/09/27 11:46:27;;;;;;;;;;;;;;;23.34;52.73;100153.09;1088544;47;955;-80
2023/09/27 11:48:00;;;;;;;;;;;;;;;23.34;52.64;100154.97;1088703;54;1095;-81
2023/09/27 11:49:06;;;;;;;;;;;;;;;23.33;52.52;100147.88;1088461;54;998;-82
2023/09/27 11:50:22;;;;;;;;;;;;;;;23.43;52.07;100145.41;1088053;54;1102;-81
2023/09/27 11:51:32;;;;;;;;;;;;;;;23.41;52.31;100135.81;1088082;54;1109;-81
2023/09/27 11:52:37;;;;;;;;;;;;;;;23.41;52.42;100135.81;1088060;54;1518;-83
2023/09/27 11:53:40;;;;;;;;;;;;;;;23.50;51.81;100146.19;1088291;54;980;-81
2023/09/27 11:54:45;;;;;;;;;;;;;;;23.55;51.46;100129.16;1088230;47;998;-83
2023/09/27 11:55:46;;;;;;;;;;;;;;;23.67;51.33;100135.47;1088024;46;964;-81
2023/09/27 11:56:46;;;;;;;;;;;;;;;23.68;51.16;100123.50;1088238;54;1867;-81
2023/09/27 11:57:59;;;;;;;;;;;;;;;23.76;51.17;100127.81;1088178;54;979;-82
2023/09/27 11:59:02;;;;;;;;;;;;;;;23.84;50.99;100119.31;1088188;47;931;-80
2023/09/27 12:00:08;;;;;;;;;;;;;;;23.74;51.56;100129.13;1088124;47;1029;-81
2023/09/27 12:01:09;;;;;;;;;;;;;;;23.83;51.43;100123.09;1088184;54;977;-80
2023/09/27 12:02:14;;;;;;;;;;;;;;;23.92;51.05;100117.31;1088062;47;1387;-82
2023/09/27 12:03:17;;;;;;;;;;;;;;;24.02;50.78;100114.91;1088221;54;981;-82
2023/09/27 12:04:19;;;;;;;;;;;;;;;24.08;50.72;100119.44;1088284;54;942;-82
2023/09/27 12:05:22;;;;;;;;;;;;;;;23.88;50.87;100119.69;1088072;54;1048;-82
2023/09/27 12:06:24;;;;;;;;;;;;;;;23.84;51.15;100113.84;1088109;46;945;-81
2023/09/27 16:00:04;;;;;;;;;;;;;;;25.16;42.74;99879.72;1086088;54;2196;-82
2023/09/27 16:01:07;;;;;;;;;;;;;;;25.23;42.66;99873.03;1086160;47;1014;-82
2023/09/27 16:02:11;;;;;;;;;;;;;;;25.30;42.70;99877.50;1087587;54;1290;-81
2023/09/27 16:03:12;;;;;;;;;;;;;;;25.34;42.78;99882.25;1087742;54;1390;-82
2023/09/27 16:04:15;;;;;;;;;;;;;;;25.27;42.61;99878.03;1087804;54;948;-81
2023/09/27 16:05:17;;;;;;;;;;;;;;;25.29;42.87;99870.38;1086718;47;1459;-83
2023/09/27 16:06:23;;;;;;;;;;;;;;;25.29;42.27;99868.47;1087294;54;1096;-83
2023/09/27 16:07:23;;;;;;;;;;;;;;;25.28;42.45;99872.28;1087325;54;1047;-82
2023/09/27 16:08:32;;;;;;;;;;;;;;;25.26;42.57;99881.81;1087070;47;1176;-83
2023/09/27 16:09:35;;;;;;;;;;;;;;;25.28;42.78;99875.03;1087074;47;1111;-83
2023/09/27 16:10:36;;;;;;;;;;;;;;;25.22;42.81;99873.28;1085833;47;1135;-82
2023/09/27 16:11:40;;;;;;;;;;;;;;;25.22;42.46;99867.81;1086089;54;1161;-82
2023/09/27 16:12:41;;;;;;;;;;;;;;;25.22;42.62;99876.84;1086640;54;1571;-83
2023/09/27 16:13:44;;;;;;;;;;;;;;;25.20;42.55;99873.50;1086921;47;1142;-82
2023/09/27 16:14:45;;;;;;;;;;;;;;;25.18;42.64;99866.63;1086765;54;1133;-83
2023/09/27 16:16:05;;;;;;;;;;;;;;;25.18;43.01;99867.44;1086958;47;1216;-84
2023/09/27 16:17:09;;;;;;;;;;;;;;;25.14;42.77;99869.03;1087406;54;1845;-83
2023/09/27 16:18:14;;;;;;;;;;;;;;;25.16;42.94;99868.78;1087618;54;1186;-84
2023/09/27 16:19:17;;;;;;;;;;;;;;;25.19;42.83;99860.09;1087289;47;1219;-81
2023/09/27 16:20:21;;;;;;;;;;;;;;;25.18;42.75;99863.91;1087410;54;1452;-82
2023/09/27 16:21:35;;;;;;;;;;;;;;;25.16;42.48;99860.59;1087563;54;1019;-83
2023/09/27 16:22:39;;;;;;;;;;;;;;;25.06;43.36;99861.25;1086711;54;1514;-80
2023/09/27 16:23:40;;;;;;;;;;;;;;;25.02;43.27;99854.59;1086853;54;1096;-82
2023/09/27 16:24:51;;;;;;;;;;;;;;;25.04;43.42;99861.47;1086138;47;1041;-82
2023/09/27 16:25:54;;;;;;;;;;;;;;;25.10;43.33;99858.84;1086751;47;1170;-83
2023/09/27 16:27:00;;;;;;;;;;;;;;;25.05;43.76;99854.94;1086798;54;1024;-82
2023/09/27 16:28:00;;;;;;;;;;;;;;;25.02;43.80;99852.69;1086743;54;1131;-83
2023/09/27 16:29:08;;;;;;;;;;;;;;;25.03;43.60;99850.78;1086654;47;1118;-81
2023/09/27 16:30:13;;;;;;;;;;;;;;;25.00;43.45;99859.47;1086242;54;1435;-80
2023/09/27 16:31:13;;;;;;;;;;;;;;;24.97;43.58;99852.59;1086686;54;1098;-82
2023/09/27 16:32:26;;;;;;;;;;;;;;;24.95;43.86;99856.66;1086756;54;1454;-82
2023/09/27 16:33:27;;;;;;;;;;;;;;;24.94;43.66;99853.06;1086425;54;1024;-82
2023/09/27 16:34:30;;;;;;;;;;;;;;;24.93;44.23;99859.63;1086783;54;1102;-83
2023/09/27 16:35:31;;;;;;;;;;;;;;;24.89;44.28;99847.53;1087106;54;1072;-81
2023/09/27 16:36:35;;;;;;;;;;;;;;;24.94;44.23;99860.47;1086855;47;1070;-82
2023/09/27 16:38:00;;;;;;;;;;;;;;;24.92;44.16;99849.78;1086727;54;1844;-82
2023/09/27 16:39:06;;;;;;;;;;;;;;;24.93;44.19;99859.63;1086511;47;1060;-81
2023/09/27 16:40:11;;;;;;;;;;;;;;;24.94;44.22;99853.06;1087069;54;1090;-82
2023/09/27 16:41:16;;;;;;;;;;;;;;;24.92;44.52;99849.78;1087245;47;1598;-83
2023/09/27 16:42:20;;;;;;;;;;;;;;;24.89;44.47;99851.06;1086929;47;1468;-83
2023/09/27 16:43:28;;;;;;;;;;;;;;;24.88;45.02;99851.31;1087375;54;1079;-82
2023/09/27 16:44:31;;;;;;;;;;;;;;;24.83;44.91;99846.59;1086815;47;1391;-81
2023/09/27 16:45:39;;;;;;;;;;;;;;;24.81;45.13;99851.47;1086698;54;1151;-83
2023/09/27 16:46:49;;;;;;;;;;;;;;;24.74;45.27;99853.53;1086913;47;1098;-81
2023/09/27 16:48:01;;;;;;;;;;;;;;;24.71;45.31;99849.38;1086591;54;1146;-82
2023/09/27 16:49:02;;;;;;;;;;;;;;;24.66;45.72;99846.50;1086586;54;1103;-82
2023/09/27 16:50:14;;;;;;;;;;;;;;;24.61;45.78;99852.69;1086480;47;1398;-82
2023/09/27 16:51:17;;;;;;;;;;;;;;;24.60;45.77;99852.94;1086880;47;1083;-83
2023/09/27 16:52:20;;;;;;;;;;;;;;;24.59;45.73;99851.28;1086804;54;1454;-81
2023/09/27 16:53:24;;;;;;;;;;;;;;;24.55;46.40;99847.38;1086793;47;1127;-82
2023/09/27 16:54:25;;;;;;;;;;;;;;;24.53;46.08;99857.72;1086814;47;1086;-81
2023/09/27 16:55:31;;;;;;;;;;;;;;;24.51;45.88;99855.25;1086799;54;1095;-81
2023/09/27 16:56:32;;;;;;;;;;;;;;;24.50;46.14;99852.72;1086653;47;1204;-82
2023/09/27 16:57:48;;;;;;;;;;;;;;;24.48;46.24;99857.59;1086664;54;1881;-80
2023/09/27 16:58:49;;;;;;;;;;;;;;;24.43;46.47;99853.72;1086563;47;992;-83
2023/09/27 16:59:52;;;;;;;;;;;;;;;24.42;46.23;99856.66;1086909;47;1166;-83
2023/09/27 17:01:02;;;;;;;;;;;;;;;24.38;46.52;99858.22;1086524;54;1075;-83
2023/09/27 17:03:22;;;;;;;;;;;;;;;24.27;47.02;99863.47;1086852;54;1381;-81
2023/09/27 17:21:56;;;;;;;;;;;;;;;23.64;49.39;99874.03;1087551;54;1320;-80
2023/09/27 17:23:34;;;;;;;;;;;;;;;23.64;49.49;99886.81;1087405;47;1113;-81
2023/09/27 17:24:38;;;;;;;;;;;;;;;23.61;49.72;99884.59;1087441;47;1114;-80
2023/09/27 17:25:58;;;;;;;;;;;;;;;23.59;49.81;99884.00;1087829;54;1249;-80
2023/09/27 17:27:01;;;;;;;;;;;;;;;23.56;49.74;99881.72;1087094;47;1040;-79
2023/09/27 17:29:39;;;;;;;;;;;;;;;23.42;50.50;99886.56;1087719;47;879;-80
2023/09/27 17:30:43;;;;;;;;;;;;;;;23.38;50.69;99883.47;1087776;54;1083;-83
2023/09/27 17:31:48;;;;;;;;;;;;;;;23.32;50.93;99881.69;1087779;54;1257;-82
2023/09/27 17:32:49;;;;;;;;;;;;;;;23.19;51.76;99886.25;1087114;54;1053;-81
2023/09/27 17:33:54;;;;;;;;;;;;;;;23.16;52.02;99888.59;1086729;54;1117;-79
2023/09/27 17:34:57;;;;;;;;;;;;;;;23.11;52.16;99885.72;1086353;54;1732;-79
2023/09/27 17:36:01;;;;;;;;;;;;;;;23.05;53.17;99893.78;1085996;54;1150;-79
2023/09/27 17:37:01;;;;;;;;;;;;;;;22.97;53.24;99895.97;1086451;54;1143;-80
2023/09/27 17:38:08;;;;;;;;;;;;;;;22.98;52.29;99897.63;1088041;54;1863;-81
2023/09/27 17:39:11;;;;;;;;;;;;;;;22.98;52.16;99889.47;1087995;54;931;-81
2023/09/27 17:40:16;;;;;;;;;;;;;;;22.96;53.03;99899.75;1087621;54;1123;-80
2023/09/27 17:41:19;;;;;;;;;;;;;;;22.95;52.56;99900.84;1087236;47;984;-80
2023/09/27 17:42:22;;;;;;;;;;;;;;;22.93;52.85;99897.50;1087298;54;1232;-81
2023/09/27 17:43:23;;;;;;;;;;;;;;;22.94;53.05;99901.91;1087326;47;1460;-81
2023/09/27 17:44:32;;;;;;;;;;;;;;;22.93;52.73;99900.25;1087267;54;1093;-81
2023/09/27 17:45:44;;;;;;;;;;;;;;;22.90;53.25;99896.91;1088055;47;1073;-81
2023/09/27 17:46:57;;;;;;;;;;;;;;;22.84;53.65;99900.56;1087882;54;1075;-81
2023/09/27 17:48:00;;;;;;;;;;;;;;;22.81;54.04;99905.63;1087665;54;1035;-80
2023/09/27 17:49:04;;;;;;;;;;;;;;;22.76;53.57;99900.88;1087533;47;1071;-80
2023/09/27 17:50:25;;;;;;;;;;;;;;;22.74;53.71;99908.44;1087130;47;1342;-80
2023/09/27 17:51:29;;;;;;;;;;;;;;;22.70;53.48;99897.16;1087684;47;1475;-80
2023/09/27 17:52:30;;;;;;;;;;;;;;;22.65;54.40;99907.09;1087421;54;1313;-81
2023/09/27 17:53:37;;;;;;;;;;;;;;;22.55;55.02;99905.72;1087760;47;1048;-79
2023/09/27 17:54:42;;;;;;;;;;;;;;;22.50;54.84;99904.75;1087297;46;1533;-81
2023/09/27 18:01:37;;;;;;;;;;;;;;;22.16;55.76;99907.78;1087585;54;1471;-80
2023/09/27 18:03:01;;;;;;;;;;;;;;;22.17;55.77;99916.78;1086472;47;1409;-81
2023/09/27 18:09:08;;;;;;;;;;;;;;;21.89;57.73;99935.25;1085182;47;1050;-80
2023/09/27 18:10:10;;;;;;;;;;;;;;;21.76;58.46;99930.75;1085264;54;1083;-80
2023/09/27 18:11:11;;;;;;;;;;;;;;;21.72;59.11;99931.41;1084856;54;1245;-81
2023/09/27 18:12:15;;;;;;;;;;;;;;;21.64;59.45;99933.34;1084670;47;1458;-79
2023/09/27 18:13:15;;;;;;;;;;;;;;;21.50;59.80;99931.75;1085065;54;1119;-80
2023/09/27 18:14:19;;;;;;;;;;;;;;;21.47;58.89;99927.59;1084976;54;1045;-80
2023/09/27 18:15:19;;;;;;;;;;;;;;;21.48;59.63;99931.13;1084251;54;1509;-80
2023/09/27 18:16:21;;;;;;;;;;;;;;;21.45;59.42;99928.84;1084683;54;1088;-79
2023/09/27 18:17:24;;;;;;;;;;;;;;;21.43;60.14;99936.41;1084397;54;1146;-79
2023/09/27 18:18:25;;;;;;;;;;;;;;;21.40;59.99;99931.41;1084508;47;1887;-80
2023/09/27 18:19:28;;;;;;;;;;;;;;;21.34;60.23;99933.94;1084224;47;1602;-78
2023/09/27 18:20:29;;;;;;;;;;;;;;;21.34;60.42;99936.66;1083819;47;1166;-79
2023/09/27 18:21:32;;;;;;;;;;;;;;;21.30;60.10;99927.28;1084342;54;990;-79
2023/09/27 18:22:32;;;;;;;;;;;;;;;21.29;60.15;99930.22;1084753;47;1394;-80
2023/09/27 18:23:36;;;;;;;;;;;;;;;21.28;60.52;99929.38;1084751;54;1130;-79
2023/09/27 18:24:39;;;;;;;;;;;;;;;21.26;60.56;99928.75;1083892;46;1522;-79
2023/09/27 18:25:42;;;;;;;;;;;;;;;21.20;60.82;99924.19;1083870;47;1497;-79
2023/09/27 18:26:43;;;;;;;;;;;;;;;21.24;60.20;99930.88;1083898;46;1075;-81
2023/09/27 18:27:44;;;;;;;;;;;;;;;21.25;59.71;99927.09;1084049;47;1478;-79
2023/09/27 18:28:47;;;;;;;;;;;;;;;21.26;59.43;99928.75;1083978;47;1170;-79
2023/09/27 18:29:47;;;;;;;;;;;;;;;21.26;60.23;99920.59;1083998;47;1143;-79
2023/09/27 18:30:48;;;;;;;;;;;;;;;21.12;60.04;99925.28;1083879;54;1559;-79
2023/09/27 18:31:51;;;;;;;;;;;;;;;21.11;60.55;99928.22;1084639;46;1391;-80
2023/09/27 18:32:56;;;;;;;;;;;;;;;21.08;60.49;99929.50;1087622;46;1628;-79
2023/09/27 18:34:02;;;;;;;;;;;;;;;21.08;60.33;99936.78;1087575;47;1079;-80
2023/09/27 18:35:05;;;;;;;;;;;;;;;21.09;60.02;99930.31;1087249;54;1087;-81
2023/09/27 18:36:09;;;;;;;;;;;;;;;20.98;61.80;99934.56;1087767;46;1071;-81
2023/09/27 18:37:10;;;;;;;;;;;;;;;20.95;61.42;99933.13;1087584;47;945;-80
2023/09/27 18:38:19;;;;;;;;;;;;;;;20.90;61.93;99927.47;1087541;54;1872;-80
2023/09/27 18:39:30;;;;;;;;;;;;;;;20.81;62.23;99931.47;1087365;47;1048;-80
2023/09/27 18:40:37;;;;;;;;;;;;;;;20.68;62.49;99925.03;1087603;54;1141;-79
2023/09/27 18:41:41;;;;;;;;;;;;;;;20.68;61.68;99924.19;1087362;46;1108;-80
2023/09/27 18:43:02;;;;;;;;;;;;;;;20.66;62.17;99921.69;1087912;47;1507;-81
2023/09/27 18:45:33;;;;;;;;;;;;;;;20.60;62.09;99922.53;1087474;46;1040;-81
2023/09/27 18:46:41;;;;;;;;;;;;;;;20.59;62.13;99923.63;1087492;47;1396;-82
2023/09/27 18:47:44;;;;;;;;;;;;;;;20.56;62.43;99922.13;1087546;46;852;-81
2023/09/27 18:49:26;;;;;;;;;;;;;;;20.54;62.44;99923.41;1088427;46;1075;-82
2023/09/27 18:50:30;;;;;;;;;;;;;;;20.49;62.42;99923.22;1086865;47;1006;-80
2023/09/27 18:51:30;;;;;;;;;;;;;;;20.45;62.33;99924.69;1084612;47;1533;-79
2023/09/27 18:52:34;;;;;;;;;;;;;;;20.45;62.11;99921.97;1085092;47;1376;-80
2023/09/27 18:53:34;;;;;;;;;;;;;;;20.41;61.87;99921.56;1084954;47;1445;-81
2023/09/27 18:54:37;;;;;;;;;;;;;;;20.37;62.00;99923.88;1084428;46;1028;-81
2023/09/27 18:55:41;;;;;;;;;;;;;;;20.31;63.45;99924.69;1084501;47;1132;-79
2023/09/27 18:56:44;;;;;;;;;;;;;;;20.27;63.42;99927.00;1085301;54;1072;-79